sensor_id;sensor_type;location;lat;lon;timestamp;temperature;humidity
26505;DHT22;19493;48.042;7.584;2024-01-10T00:01:36;-2.80;99.90
26505;DHT22;19493;48.042;7.584;2024-01-10T00:04:01;-2.80;99.90
26505;DHT22;19493;48.042;7.584;2024-01-10T00:06:28;-2.80;99.90
26505;DHT22;19493;48.042;7.584;2024-01-10T00:08:53;-2.80;99.90
26505;DHT22;19493;48.042;7.584;2024-01-10T00:11:19;-2.90;99.90
26505;DHT22;19493;48.042;7.584;2024-01-10T00:13:44;-2.80;99.90
26505;DHT22;19493;48.042;7.584;2024-01-10T00:16:13;-2.80;99.90
26505;DHT22;19493;48.042;7.584;2024-01-10T00:18:39;-2.80;99.90
26505;DHT22;19493;48.042;7.584;2024-01-10T00:21:06;-2.90;99.90
26505;DHT22;19493;48.042;7.584;2024-01-10T00:23:32;-2.90;99.90
26505;DHT22;19493;48.042;7.584;2024-01-10T00:25:57;-2.80;99.90
26505;DHT22;19493;48.042;7.584;2024-01-10T00:28:23;-2.90;99.90
26505;DHT22;19493;48.042;7.584;2024-01-10T00:30:48;-2.90;99.90
26505;DHT22;19493;48.042;7.584;2024-01-10T00:33:14;-2.90;99.90
26505;DHT22;19493;48.042;7.584;2024-01-10T00:35:40;-2.90;99.90
26505;DHT22;19493;48.042;7.584;2024-01-10T00:38:06;-2.90;99.90
26505;DHT22;19493;48.042;7.584;2024-01-10T00:40:31;-2.90;99.90
26505;DHT22;19493;48.042;7.584;2024-01-10T00:42:57;-2.90;99.90
26505;DHT22;19493;48.042;7.584;2024-01-10T00:45:22;-2.90;99.90
26505;DHT22;19493;48.042;7.584;2024-01-10T00:47:48;-2.90;99.90
26505;DHT22;19493;48.042;7.584;2024-01-10T00:50:14;-2.80;99.90
26505;DHT22;19493;48.042;7.584;2024-01-10T00:52:39;-2.80;99.90
26505;DHT22;19493;48.042;7.584;2024-01-10T00:55:05;-2.80;99.90
26505;DHT22;19493;48.042;7.584;2024-01-10T00:57:32;-2.80;99.90
26505;DHT22;19493;48.042;7.584;2024-01-10T00:59:57;-2.80;99.90
26505;DHT22;19493;48.042;7.584;2024-01-10T01:02:23;-2.80;99.90
26505;DHT22;19493;48.042;7.584;2024-01-10T01:04:48;-2.80;99.90
26505;DHT22;19493;48.042;7.584;2024-01-10T01:07:14;-2.80;99.90
26505;DHT22;19493;48.042;7.584;2024-01-10T01:09:39;-2.80;99.90
26505;DHT22;19493;48.042;7.584;2024-01-10T01:12:05;-2.90;99.90
26505;DHT22;19493;48.042;7.584;2024-01-10T01:14:31;-2.90;99.90
26505;DHT22;19493;48.042;7.584;2024-01-10T01:16:56;-2.90;99.90
26505;DHT22;19493;48.042;7.584;2024-01-10T01:19:22;-2.90;99.90
26505;DHT22;19493;48.042;7.584;2024-01-10T01:21:48;-2.90;99.90
26505;DHT22;19493;48.042;7.584;2024-01-10T01:24:13;-2.90;99.90
26505;DHT22;19493;48.042;7.584;2024-01-10T01:26:39;-2.90;99.90
26505;DHT22;19493;48.042;7.584;2024-01-10T01:29:04;-3.00;99.90
26505;DHT22;19493;48.042;7.584;2024-01-10T01:31:30;-3.00;99.90
26505;DHT22;19493;48.042;7.584;2024-01-10T01:33:55;-3.00;99.90
26505;DHT22;19493;48.042;7.584;2024-01-10T01:36:21;-3.00;99.90
26505;DHT22;19493;48.042;7.584;2024-01-10T01:38:46;-3.00;99.90
26505;DHT22;19493;48.042;7.584;2024-01-10T01:41:12;-3.10;99.90
26505;DHT22;19493;48.042;7.584;2024-01-10T01:43:40;-3.10;99.90
26505;DHT22;19493;48.042;7.584;2024-01-10T01:46:06;-3.10;99.90
26505;DHT22;19493;48.042;7.584;2024-01-10T01:48:32;-3.10;99.90
26505;DHT22;19493;48.042;7.584;2024-01-10T01:51:02;-3.20;99.90
26505;DHT22;19493;48.042;7.584;2024-01-10T01:53:30;-3.20;99.90
26505;DHT22;19493;48.042;7.584;2024-01-10T01:55:56;-3.20;99.90
26505;DHT22;19493;48.042;7.584;2024-01-10T01:58:23;-3.20;99.90
26505;DHT22;19493;48.042;7.584;2024-01-10T02:00:49;-3.30;99.90
26505;DHT22;19493;48.042;7.584;2024-01-10T02:03:15;-3.20;99.90
26505;DHT22;19493;48.042;7.584;2024-01-10T02:05:41;-3.30;99.90
26505;DHT22;19493;48.042;7.584;2024-01-10T02:08:07;-3.30;99.90
26505;DHT22;19493;48.042;7.584;2024-01-10T02:10:34;-3.30;99.90
26505;DHT22;19493;48.042;7.584;2024-01-10T02:12:59;-3.20;99.90
26505;DHT22;19493;48.042;7.584;2024-01-10T02:15:25;-3.20;99.90
26505;DHT22;19493;48.042;7.584;2024-01-10T02:17:51;-3.20;99.90
26505;DHT22;19493;48.042;7.584;2024-01-10T02:20:16;-3.20;99.90
26505;DHT22;19493;48.042;7.584;2024-01-10T02:22:42;-3.10;99.90
26505;DHT22;19493;48.042;7.584;2024-01-10T02:25:09;-3.00;99.90
26505;DHT22;19493;48.042;7.584;2024-01-10T02:27:36;-3.00;99.90
26505;DHT22;19493;48.042;7.584;2024-01-10T02:30:06;-3.00;99.90
26505;DHT22;19493;48.042;7.584;2024-01-10T02:32:32;-3.00;99.90
26505;DHT22;19493;48.042;7.584;2024-01-10T02:34:58;-3.00;99.90
26505;DHT22;19493;48.042;7.584;2024-01-10T02:37:23;-3.00;99.90
26505;DHT22;19493;48.042;7.584;2024-01-10T02:39:49;-3.00;99.90
26505;DHT22;19493;48.042;7.584;2024-01-10T02:42:15;-3.00;99.90
26505;DHT22;19493;48.042;7.584;2024-01-10T02:44:41;-3.00;99.90
26505;DHT22;19493;48.042;7.584;2024-01-10T02:47:07;-3.00;99.90
26505;DHT22;19493;48.042;7.584;2024-01-10T02:49:33;-3.10;99.90
26505;DHT22;19493;48.042;7.584;2024-01-10T02:51:59;-3.10;99.90
26505;DHT22;19493;48.042;7.584;2024-01-10T02:54:24;-3.20;99.90
26505;DHT22;19493;48.042;7.584;2024-01-10T02:56:50;-3.20;99.90
26505;DHT22;19493;48.042;7.584;2024-01-10T02:59:15;-3.20;99.90
26505;DHT22;19493;48.042;7.584;2024-01-10T03:01:41;-3.30;99.90
26505;DHT22;19493;48.042;7.584;2024-01-10T03:04:06;-3.30;99.90
26505;DHT22;19493;48.042;7.584;2024-01-10T03:06:32;-3.40;99.90
26505;DHT22;19493;48.042;7.584;2024-01-10T03:08:57;-3.50;99.90
26505;DHT22;19493;48.042;7.584;2024-01-10T03:11:23;-3.50;99.90
26505;DHT22;19493;48.042;7.584;2024-01-10T03:14:08;-3.60;99.90
26505;DHT22;19493;48.042;7.584;2024-01-10T03:16:34;-3.70;99.90
26505;DHT22;19493;48.042;7.584;2024-01-10T03:19:00;-3.80;99.90
26505;DHT22;19493;48.042;7.584;2024-01-10T03:21:26;-3.90;99.90
26505;DHT22;19493;48.042;7.584;2024-01-10T03:24:01;-4.00;99.90
26505;DHT22;19493;48.042;7.584;2024-01-10T03:26:27;-4.00;99.90
26505;DHT22;19493;48.042;7.584;2024-01-10T03:28:53;-4.00;99.90
26505;DHT22;19493;48.042;7.584;2024-01-10T03:31:20;-4.00;99.90
26505;DHT22;19493;48.042;7.584;2024-01-10T03:33:46;-4.00;99.90
26505;DHT22;19493;48.042;7.584;2024-01-10T03:36:14;-4.00;99.90
26505;DHT22;19493;48.042;7.584;2024-01-10T03:38:40;-4.00;99.90
26505;DHT22;19493;48.042;7.584;2024-01-10T03:41:06;-3.90;99.90
26505;DHT22;19493;48.042;7.584;2024-01-10T03:43:31;-3.80;99.90
26505;DHT22;19493;48.042;7.584;2024-01-10T03:45:57;-3.80;99.90
26505;DHT22;19493;48.042;7.584;2024-01-10T03:48:23;-3.70;99.90
26505;DHT22;19493;48.042;7.584;2024-01-10T03:50:49;-3.60;99.90
26505;DHT22;19493;48.042;7.584;2024-01-10T03:53:14;-3.50;99.90
26505;DHT22;19493;48.042;7.584;2024-01-10T03:55:40;-3.40;99.90
26505;DHT22;19493;48.042;7.584;2024-01-10T03:58:06;-3.40;99.90
26505;DHT22;19493;48.042;7.584;2024-01-10T04:00:31;-3.40;99.90
26505;DHT22;19493;48.042;7.584;2024-01-10T04:02:57;-3.30;99.90
26505;DHT22;19493;48.042;7.584;2024-01-10T04:05:23;-3.30;99.90
26505;DHT22;19493;48.042;7.584;2024-01-10T04:07:50;-3.30;99.90
26505;DHT22;19493;48.042;7.584;2024-01-10T04:10:16;-3.30;99.90
26505;DHT22;19493;48.042;7.584;2024-01-10T04:12:45;-3.20;99.90
26505;DHT22;19493;48.042;7.584;2024-01-10T04:15:11;-3.30;99.90
26505;DHT22;19493;48.042;7.584;2024-01-10T04:17:37;-3.20;99.90
26505;DHT22;19493;48.042;7.584;2024-01-10T04:20:03;-3.20;99.90
26505;DHT22;19493;48.042;7.584;2024-01-10T04:22:29;-3.20;99.90
26505;DHT22;19493;48.042;7.584;2024-01-10T04:24:59;-3.20;99.90
26505;DHT22;19493;48.042;7.584;2024-01-10T04:27:25;-3.20;99.90
26505;DHT22;19493;48.042;7.584;2024-01-10T04:29:51;-3.20;99.90
26505;DHT22;19493;48.042;7.584;2024-01-10T04:32:16;-3.20;99.90
26505;DHT22;19493;48.042;7.584;2024-01-10T04:34:42;-3.30;99.90
26505;DHT22;19493;48.042;7.584;2024-01-10T04:37:08;-3.30;99.90
26505;DHT22;19493;48.042;7.584;2024-01-10T04:39:36;-3.30;99.90
26505;DHT22;19493;48.042;7.584;2024-01-10T04:42:03;-3.20;99.90
26505;DHT22;19493;48.042;7.584;2024-01-10T04:44:29;-3.20;99.90
26505;DHT22;19493;48.042;7.584;2024-01-10T04:46:55;-3.10;99.90
26505;DHT22;19493;48.042;7.584;2024-01-10T04:49:20;-3.10;99.90
26505;DHT22;19493;48.042;7.584;2024-01-10T04:51:46;-3.10;99.90
26505;DHT22;19493;48.042;7.584;2024-01-10T04:54:12;-3.10;99.90
26505;DHT22;19493;48.042;7.584;2024-01-10T04:56:37;-3.10;99.90
26505;DHT22;19493;48.042;7.584;2024-01-10T04:59:04;-3.10;99.90
26505;DHT22;19493;48.042;7.584;2024-01-10T05:01:29;-3.00;99.90
26505;DHT22;19493;48.042;7.584;2024-01-10T05:03:55;-3.00;99.90
26505;DHT22;19493;48.042;7.584;2024-01-10T05:06:21;-3.00;99.90
26505;DHT22;19493;48.042;7.584;2024-01-10T05:08:46;-3.00;99.90
26505;DHT22;19493;48.042;7.584;2024-01-10T05:11:12;-3.10;99.90
26505;DHT22;19493;48.042;7.584;2024-01-10T05:13:39;-3.10;99.90
26505;DHT22;19493;48.042;7.584;2024-01-10T05:16:05;-3.10;99.90
26505;DHT22;19493;48.042;7.584;2024-01-10T05:18:31;-3.20;99.90
26505;DHT22;19493;48.042;7.584;2024-01-10T05:20:56;-3.20;99.90
26505;DHT22;19493;48.042;7.584;2024-01-10T05:23:23;-3.20;99.90
26505;DHT22;19493;48.042;7.584;2024-01-10T05:25:48;-3.20;99.90
26505;DHT22;19493;48.042;7.584;2024-01-10T05:28:14;-3.20;99.90
26505;DHT22;19493;48.042;7.584;2024-01-10T05:30:40;-3.20;99.90
26505;DHT22;19493;48.042;7.584;2024-01-10T05:33:06;-3.10;99.90
26505;DHT22;19493;48.042;7.584;2024-01-10T05:35:32;-3.10;99.90
26505;DHT22;19493;48.042;7.584;2024-01-10T05:37:57;-3.10;99.90
26505;DHT22;19493;48.042;7.584;2024-01-10T05:40:23;-3.10;99.90
26505;DHT22;19493;48.042;7.584;2024-01-10T05:42:49;-3.10;99.90
26505;DHT22;19493;48.042;7.584;2024-01-10T05:45:14;-3.10;99.90
26505;DHT22;19493;48.042;7.584;2024-01-10T05:47:43;-3.10;99.90
26505;DHT22;19493;48.042;7.584;2024-01-10T05:50:09;-3.10;99.90
26505;DHT22;19493;48.042;7.584;2024-01-10T05:52:34;-3.10;99.90
26505;DHT22;19493;48.042;7.584;2024-01-10T05:55:00;-3.20;99.90
26505;DHT22;19493;48.042;7.584;2024-01-10T05:57:27;-3.20;99.90
26505;DHT22;19493;48.042;7.584;2024-01-10T05:59:53;-3.30;99.90
26505;DHT22;19493;48.042;7.584;2024-01-10T06:02:22;-3.40;99.90
26505;DHT22;19493;48.042;7.584;2024-01-10T06:04:48;-3.40;99.90
26505;DHT22;19493;48.042;7.584;2024-01-10T06:07:13;-3.50;99.90
26505;DHT22;19493;48.042;7.584;2024-01-10T06:09:39;-3.60;99.90
26505;DHT22;19493;48.042;7.584;2024-01-10T06:12:06;-3.70;99.90
26505;DHT22;19493;48.042;7.584;2024-01-10T06:14:32;-3.80;99.90
26505;DHT22;19493;48.042;7.584;2024-01-10T06:16:57;-3.90;99.90
26505;DHT22;19493;48.042;7.584;2024-01-10T06:19:25;-4.00;99.90
26505;DHT22;19493;48.042;7.584;2024-01-10T06:21:50;-4.10;99.90
26505;DHT22;19493;48.042;7.584;2024-01-10T06:24:17;-4.10;99.90
26505;DHT22;19493;48.042;7.584;2024-01-10T06:26:43;-4.20;99.90
26505;DHT22;19493;48.042;7.584;2024-01-10T06:29:08;-4.30;99.90
26505;DHT22;19493;48.042;7.584;2024-01-10T06:31:34;-4.30;99.90
26505;DHT22;19493;48.042;7.584;2024-01-10T06:33:59;-4.30;99.90
26505;DHT22;19493;48.042;7.584;2024-01-10T06:36:25;-4.30;99.90
26505;DHT22;19493;48.042;7.584;2024-01-10T06:38:50;-4.30;99.90
26505;DHT22;19493;48.042;7.584;2024-01-10T06:41:16;-4.20;99.90
26505;DHT22;19493;48.042;7.584;2024-01-10T06:43:41;-4.20;99.90
26505;DHT22;19493;48.042;7.584;2024-01-10T06:46:07;-4.20;99.90
26505;DHT22;19493;48.042;7.584;2024-01-10T06:48:32;-4.20;99.90
26505;DHT22;19493;48.042;7.584;2024-01-10T06:50:59;-4.30;99.90
26505;DHT22;19493;48.042;7.584;2024-01-10T06:53:24;-4.40;99.90
26505;DHT22;19493;48.042;7.584;2024-01-10T06:55:50;-4.40;99.90
26505;DHT22;19493;48.042;7.584;2024-01-10T06:58:16;-4.50;99.90
26505;DHT22;19493;48.042;7.584;2024-01-10T07:00:41;-4.50;99.90
26505;DHT22;19493;48.042;7.584;2024-01-10T07:03:07;-4.60;99.90
26505;DHT22;19493;48.042;7.584;2024-01-10T07:05:33;-4.70;99.90
26505;DHT22;19493;48.042;7.584;2024-01-10T07:08:00;-4.80;99.90
26505;DHT22;19493;48.042;7.584;2024-01-10T07:10:28;-4.90;99.90
26505;DHT22;19493;48.042;7.584;2024-01-10T07:12:55;-5.00;99.90
26505;DHT22;19493;48.042;7.584;2024-01-10T07:15:21;-5.10;99.90
26505;DHT22;19493;48.042;7.584;2024-01-10T07:17:46;-5.10;99.90
26505;DHT22;19493;48.042;7.584;2024-01-10T07:20:12;-5.20;99.90
26505;DHT22;19493;48.042;7.584;2024-01-10T07:22:38;-5.10;99.90
26505;DHT22;19493;48.042;7.584;2024-01-10T07:25:09;-5.10;99.90
26505;DHT22;19493;48.042;7.584;2024-01-10T07:27:35;-5.10;99.90
26505;DHT22;19493;48.042;7.584;2024-01-10T07:30:04;-5.10;99.90
26505;DHT22;19493;48.042;7.584;2024-01-10T07:32:30;-5.10;99.90
26505;DHT22;19493;48.042;7.584;2024-01-10T07:34:56;-5.10;99.90
26505;DHT22;19493;48.042;7.584;2024-01-10T07:37:23;-5.10;99.90
26505;DHT22;19493;48.042;7.584;2024-01-10T07:39:48;-5.10;99.90
26505;DHT22;19493;48.042;7.584;2024-01-10T07:42:15;-5.00;99.90
26505;DHT22;19493;48.042;7.584;2024-01-10T07:44:43;-5.00;99.90
26505;DHT22;19493;48.042;7.584;2024-01-10T07:47:08;-5.00;99.90
26505;DHT22;19493;48.042;7.584;2024-01-10T07:49:35;-5.00;99.90
26505;DHT22;19493;48.042;7.584;2024-01-10T07:52:03;-5.00;99.90
26505;DHT22;19493;48.042;7.584;2024-01-10T07:54:29;-4.90;99.90
26505;DHT22;19493;48.042;7.584;2024-01-10T07:56:57;-4.90;99.90
26505;DHT22;19493;48.042;7.584;2024-01-10T07:59:23;-4.80;99.90
26505;DHT22;19493;48.042;7.584;2024-01-10T08:01:56;-4.70;99.90
26505;DHT22;19493;48.042;7.584;2024-01-10T08:04:24;-4.60;99.90
26505;DHT22;19493;48.042;7.584;2024-01-10T08:06:50;-4.50;99.90
26505;DHT22;19493;48.042;7.584;2024-01-10T08:09:15;-4.40;99.90
26505;DHT22;19493;48.042;7.584;2024-01-10T08:11:41;-4.30;99.90
26505;DHT22;19493;48.042;7.584;2024-01-10T08:14:06;-4.30;99.90
26505;DHT22;19493;48.042;7.584;2024-01-10T08:16:32;-4.20;99.90
26505;DHT22;19493;48.042;7.584;2024-01-10T08:18:57;-4.20;99.90
26505;DHT22;19493;48.042;7.584;2024-01-10T08:21:24;-4.20;99.90
26505;DHT22;19493;48.042;7.584;2024-01-10T08:23:50;-4.30;99.90
26505;DHT22;19493;48.042;7.584;2024-01-10T08:26:16;-4.30;99.90
26505;DHT22;19493;48.042;7.584;2024-01-10T08:28:41;-4.30;99.90
26505;DHT22;19493;48.042;7.584;2024-01-10T08:31:08;-4.20;99.90
26505;DHT22;19493;48.042;7.584;2024-01-10T08:33:33;-4.20;99.90
26505;DHT22;19493;48.042;7.584;2024-01-10T08:35:59;-4.10;99.90
26505;DHT22;19493;48.042;7.584;2024-01-10T08:38:25;-4.00;99.90
26505;DHT22;19493;48.042;7.584;2024-01-10T08:40:50;-3.80;99.90
26505;DHT22;19493;48.042;7.584;2024-01-10T08:43:16;-3.60;99.90
26505;DHT22;19493;48.042;7.584;2024-01-10T08:45:43;-3.50;99.90
26505;DHT22;19493;48.042;7.584;2024-01-10T08:48:09;-3.40;99.90
26505;DHT22;19493;48.042;7.584;2024-01-10T08:50:37;-3.20;99.90
26505;DHT22;19493;48.042;7.584;2024-01-10T08:53:02;-3.00;99.90
26505;DHT22;19493;48.042;7.584;2024-01-10T08:55:31;-3.00;99.90
26505;DHT22;19493;48.042;7.584;2024-01-10T08:57:57;-2.80;99.90
26505;DHT22;19493;48.042;7.584;2024-01-10T09:00:23;-2.50;99.90
26505;DHT22;19493;48.042;7.584;2024-01-10T09:02:50;-2.30;99.90
26505;DHT22;19493;48.042;7.584;2024-01-10T09:05:16;-2.10;99.90
26505;DHT22;19493;48.042;7.584;2024-01-10T09:07:41;-2.00;99.90
26505;DHT22;19493;48.042;7.584;2024-01-10T09:10:07;-2.00;99.90
26505;DHT22;19493;48.042;7.584;2024-01-10T09:12:33;-1.90;99.90
26505;DHT22;19493;48.042;7.584;2024-01-10T09:14:59;-1.80;99.90
26505;DHT22;19493;48.042;7.584;2024-01-10T09:17:26;-1.70;99.90
26505;DHT22;19493;48.042;7.584;2024-01-10T09:19:52;-1.60;99.90
26505;DHT22;19493;48.042;7.584;2024-01-10T09:22:17;-1.40;99.90
26505;DHT22;19493;48.042;7.584;2024-01-10T09:24:43;-1.30;99.90
26505;DHT22;19493;48.042;7.584;2024-01-10T09:27:08;-1.10;99.90
26505;DHT22;19493;48.042;7.584;2024-01-10T09:29:34;-1.10;99.90
26505;DHT22;19493;48.042;7.584;2024-01-10T09:32:00;-1.10;99.90
26505;DHT22;19493;48.042;7.584;2024-01-10T09:34:26;-1.00;99.90
26505;DHT22;19493;48.042;7.584;2024-01-10T09:36:51;-0.80;99.90
26505;DHT22;19493;48.042;7.584;2024-01-10T09:39:18;-0.60;99.90
26505;DHT22;19493;48.042;7.584;2024-01-10T09:41:49;-0.30;99.90
26505;DHT22;19493;48.042;7.584;2024-01-10T09:44:17;0.00;99.90
26505;DHT22;19493;48.042;7.584;2024-01-10T09:46:47;0.50;99.90
26505;DHT22;19493;48.042;7.584;2024-01-10T09:49:14;0.60;99.90
26505;DHT22;19493;48.042;7.584;2024-01-10T09:51:40;0.60;99.90
26505;DHT22;19493;48.042;7.584;2024-01-10T09:54:05;0.60;99.90
26505;DHT22;19493;48.042;7.584;2024-01-10T09:56:32;0.60;99.90
26505;DHT22;19493;48.042;7.584;2024-01-10T09:59:01;0.90;99.90
26505;DHT22;19493;48.042;7.584;2024-01-10T10:01:27;1.60;99.90
26505;DHT22;19493;48.042;7.584;2024-01-10T10:03:53;2.80;99.90
26505;DHT22;19493;48.042;7.584;2024-01-10T10:06:21;4.10;99.90
26505;DHT22;19493;48.042;7.584;2024-01-10T10:08:47;5.80;97.60
26505;DHT22;19493;48.042;7.584;2024-01-10T10:11:13;7.00;92.90
26505;DHT22;19493;48.042;7.584;2024-01-10T10:13:41;8.10;87.30
26505;DHT22;19493;48.042;7.584;2024-01-10T10:16:08;8.40;81.20
26505;DHT22;19493;48.042;7.584;2024-01-10T10:18:35;8.50;76.90
26505;DHT22;19493;48.042;7.584;2024-01-10T10:21:11;8.00;75.50
26505;DHT22;19493;48.042;7.584;2024-01-10T10:23:38;7.00;76.20
26505;DHT22;19493;48.042;7.584;2024-01-10T10:26:17;6.30;79.60
26505;DHT22;19493;48.042;7.584;2024-01-10T10:28:47;5.90;81.70
26505;DHT22;19493;48.042;7.584;2024-01-10T10:31:13;5.60;82.80
26505;DHT22;19493;48.042;7.584;2024-01-10T10:33:40;5.20;84.00
26505;DHT22;19493;48.042;7.584;2024-01-10T10:36:06;4.40;86.10
26505;DHT22;19493;48.042;7.584;2024-01-10T10:38:32;4.20;86.80
26505;DHT22;19493;48.042;7.584;2024-01-10T10:40:59;4.00;89.30
26505;DHT22;19493;48.042;7.584;2024-01-10T10:43:25;4.40;89.00
26505;DHT22;19493;48.042;7.584;2024-01-10T10:45:51;5.30;87.30
26505;DHT22;19493;48.042;7.584;2024-01-10T10:48:18;6.90;84.70
26505;DHT22;19493;48.042;7.584;2024-01-10T10:50:54;9.10;78.50
26505;DHT22;19493;48.042;7.584;2024-01-10T10:53:23;11.30;70.20
26505;DHT22;19493;48.042;7.584;2024-01-10T10:55:51;13.20;63.80
26505;DHT22;19493;48.042;7.584;2024-01-10T10:58:17;14.40;57.20
26505;DHT22;19493;48.042;7.584;2024-01-10T11:00:43;14.90;54.10
26505;DHT22;19493;48.042;7.584;2024-01-10T11:03:10;15.00;52.10
26505;DHT22;19493;48.042;7.584;2024-01-10T11:05:40;15.50;51.20
26505;DHT22;19493;48.042;7.584;2024-01-10T11:08:12;15.60;49.60
26505;DHT22;19493;48.042;7.584;2024-01-10T11:10:40;15.60;48.40
26505;DHT22;19493;48.042;7.584;2024-01-10T11:13:45;15.80;48.90
26505;DHT22;19493;48.042;7.584;2024-01-10T11:16:41;16.60;46.50
26505;DHT22;19493;48.042;7.584;2024-01-10T11:22:15;17.40;44.40
26505;DHT22;19493;48.042;7.584;2024-01-10T11:24:44;17.40;42.60
26505;DHT22;19493;48.042;7.584;2024-01-10T11:27:15;17.20;42.90
26505;DHT22;19493;48.042;7.584;2024-01-10T11:29:41;17.50;43.50
26505;DHT22;19493;48.042;7.584;2024-01-10T11:32:13;18.20;42.30
26505;DHT22;19493;48.042;7.584;2024-01-10T11:34:49;18.70;40.60
26505;DHT22;19493;48.042;7.584;2024-01-10T11:37:15;18.30;41.00
26505;DHT22;19493;48.042;7.584;2024-01-10T11:39:44;17.80;40.70
26505;DHT22;19493;48.042;7.584;2024-01-10T11:42:10;17.30;41.20
26505;DHT22;19493;48.042;7.584;2024-01-10T11:44:47;17.10;41.40
26505;DHT22;19493;48.042;7.584;2024-01-10T11:47:13;17.30;41.70
26505;DHT22;19493;48.042;7.584;2024-01-10T11:49:40;17.60;40.70
26505;DHT22;19493;48.042;7.584;2024-01-10T11:52:06;17.70;40.80
26505;DHT22;19493;48.042;7.584;2024-01-10T11:59:44;18.80;38.30
26505;DHT22;19493;48.042;7.584;2024-01-10T12:02:11;18.60;37.80
26505;DHT22;19493;48.042;7.584;2024-01-10T12:04:37;17.50;38.80
26505;DHT22;19493;48.042;7.584;2024-01-10T12:07:05;17.40;40.00
26505;DHT22;19493;48.042;7.584;2024-01-10T12:09:32;17.80;39.60
26505;DHT22;19493;48.042;7.584;2024-01-10T12:11:58;18.10;39.10
26505;DHT22;19493;48.042;7.584;2024-01-10T12:14:24;18.40;39.40
26505;DHT22;19493;48.042;7.584;2024-01-10T12:16:53;18.70;39.60
26505;DHT22;19493;48.042;7.584;2024-01-10T12:19:19;18.90;38.00
26505;DHT22;19493;48.042;7.584;2024-01-10T12:21:44;18.50;38.50
26505;DHT22;19493;48.042;7.584;2024-01-10T12:24:10;18.70;38.10
26505;DHT22;19493;48.042;7.584;2024-01-10T12:26:35;19.00;38.00
26505;DHT22;19493;48.042;7.584;2024-01-10T12:29:03;19.30;37.10
26505;DHT22;19493;48.042;7.584;2024-01-10T12:31:31;18.60;37.30
26505;DHT22;19493;48.042;7.584;2024-01-10T12:33:58;16.40;38.50
26505;DHT22;19493;48.042;7.584;2024-01-10T12:36:24;13.60;42.90
26505;DHT22;19493;48.042;7.584;2024-01-10T12:38:50;11.20;47.90
26505;DHT22;19493;48.042;7.584;2024-01-10T12:41:17;9.60;51.90
26505;DHT22;19493;48.042;7.584;2024-01-10T12:43:43;8.90;54.20
26505;DHT22;19493;48.042;7.584;2024-01-10T12:46:10;8.10;56.10
26505;DHT22;19493;48.042;7.584;2024-01-10T12:48:36;7.70;57.30
26505;DHT22;19493;48.042;7.584;2024-01-10T12:51:03;7.50;58.00
26505;DHT22;19493;48.042;7.584;2024-01-10T12:53:42;6.40;60.10
26505;DHT22;19493;48.042;7.584;2024-01-10T12:56:10;5.00;64.10
26505;DHT22;19493;48.042;7.584;2024-01-10T12:58:39;4.30;67.80
26505;DHT22;19493;48.042;7.584;2024-01-10T13:01:08;3.50;70.50
26505;DHT22;19493;48.042;7.584;2024-01-10T13:03:34;3.10;73.20
26505;DHT22;19493;48.042;7.584;2024-01-10T13:05:59;2.50;75.70
26505;DHT22;19493;48.042;7.584;2024-01-10T13:08:25;2.00;77.90
26505;DHT22;19493;48.042;7.584;2024-01-10T13:10:51;1.50;80.80
26505;DHT22;19493;48.042;7.584;2024-01-10T13:13:18;1.40;86.00
26505;DHT22;19493;48.042;7.584;2024-01-10T13:15:44;1.40;89.60
26505;DHT22;19493;48.042;7.584;2024-01-10T13:18:11;1.40;91.40
26505;DHT22;19493;48.042;7.584;2024-01-10T13:20:37;1.60;92.50
26505;DHT22;19493;48.042;7.584;2024-01-10T13:23:04;1.70;92.20
26505;DHT22;19493;48.042;7.584;2024-01-10T13:25:29;1.90;92.70
26505;DHT22;19493;48.042;7.584;2024-01-10T13:27:55;2.20;93.30
26505;DHT22;19493;48.042;7.584;2024-01-10T13:30:20;2.40;92.10
26505;DHT22;19493;48.042;7.584;2024-01-10T13:32:46;2.60;92.20
26505;DHT22;19493;48.042;7.584;2024-01-10T13:35:15;2.90;91.30
26505;DHT22;19493;48.042;7.584;2024-01-10T13:37:42;3.10;90.40
26505;DHT22;19493;48.042;7.584;2024-01-10T13:40:11;3.40;90.20
26505;DHT22;19493;48.042;7.584;2024-01-10T13:42:40;3.50;88.70
26505;DHT22;19493;48.042;7.584;2024-01-10T13:45:07;3.80;86.60
26505;DHT22;19493;48.042;7.584;2024-01-10T13:47:39;3.70;86.40
26505;DHT22;19493;48.042;7.584;2024-01-10T13:50:06;3.50;86.80
26505;DHT22;19493;48.042;7.584;2024-01-10T13:52:33;3.60;88.20
26505;DHT22;19493;48.042;7.584;2024-01-10T13:54:59;3.50;87.90
26505;DHT22;19493;48.042;7.584;2024-01-10T13:57:25;3.40;88.80
26505;DHT22;19493;48.042;7.584;2024-01-10T13:59:50;2.90;90.60
26505;DHT22;19493;48.042;7.584;2024-01-10T14:02:16;2.50;92.10
26505;DHT22;19493;48.042;7.584;2024-01-10T14:04:44;2.20;93.80
26505;DHT22;19493;48.042;7.584;2024-01-10T14:07:10;1.80;95.40
26505;DHT22;19493;48.042;7.584;2024-01-10T14:09:35;1.60;97.30
26505;DHT22;19493;48.042;7.584;2024-01-10T14:12:01;1.50;98.40
26505;DHT22;19493;48.042;7.584;2024-01-10T14:14:26;1.60;99.70
26505;DHT22;19493;48.042;7.584;2024-01-10T14:16:52;1.60;99.90
26505;DHT22;19493;48.042;7.584;2024-01-10T14:19:17;1.50;99.90
26505;DHT22;19493;48.042;7.584;2024-01-10T14:21:43;1.40;99.90
26505;DHT22;19493;48.042;7.584;2024-01-10T14:24:11;1.30;99.90
26505;DHT22;19493;48.042;7.584;2024-01-10T14:26:36;1.20;99.90
26505;DHT22;19493;48.042;7.584;2024-01-10T14:29:02;1.10;99.90
26505;DHT22;19493;48.042;7.584;2024-01-10T14:31:28;1.10;99.90
26505;DHT22;19493;48.042;7.584;2024-01-10T14:33:53;1.00;99.90
26505;DHT22;19493;48.042;7.584;2024-01-10T14:36:19;1.00;99.90
26505;DHT22;19493;48.042;7.584;2024-01-10T14:38:44;0.90;99.90
26505;DHT22;19493;48.042;7.584;2024-01-10T14:41:10;0.80;99.90
26505;DHT22;19493;48.042;7.584;2024-01-10T14:43:36;0.70;99.90
26505;DHT22;19493;48.042;7.584;2024-01-10T14:46:02;0.60;99.90
26505;DHT22;19493;48.042;7.584;2024-01-10T14:48:28;0.50;99.90
26505;DHT22;19493;48.042;7.584;2024-01-10T14:50:53;0.20;99.90
26505;DHT22;19493;48.042;7.584;2024-01-10T14:53:19;0.10;99.90
26505;DHT22;19493;48.042;7.584;2024-01-10T14:55:44;-0.10;99.90
26505;DHT22;19493;48.042;7.584;2024-01-10T14:58:10;-0.30;99.90
26505;DHT22;19493;48.042;7.584;2024-01-10T15:00:35;-0.50;99.90
26505;DHT22;19493;48.042;7.584;2024-01-10T15:03:01;-0.60;99.90
26505;DHT22;19493;48.042;7.584;2024-01-10T15:05:29;-0.70;99.90
26505;DHT22;19493;48.042;7.584;2024-01-10T15:07:55;-0.90;99.90
26505;DHT22;19493;48.042;7.584;2024-01-10T15:10:20;-1.00;99.90
26505;DHT22;19493;48.042;7.584;2024-01-10T15:12:46;-1.00;99.90
26505;DHT22;19493;48.042;7.584;2024-01-10T15:15:12;-1.10;99.90
26505;DHT22;19493;48.042;7.584;2024-01-10T15:17:37;-1.20;99.90
26505;DHT22;19493;48.042;7.584;2024-01-10T15:22:29;-1.30;99.90
26505;DHT22;19493;48.042;7.584;2024-01-10T15:24:55;-1.40;99.90
26505;DHT22;19493;48.042;7.584;2024-01-10T15:27:20;-1.40;99.90
26505;DHT22;19493;48.042;7.584;2024-01-10T15:29:46;-1.50;99.90
26505;DHT22;19493;48.042;7.584;2024-01-10T15:32:11;-1.60;99.90
26505;DHT22;19493;48.042;7.584;2024-01-10T15:34:37;-1.70;99.90
26505;DHT22;19493;48.042;7.584;2024-01-10T15:37:03;-1.80;99.90
26505;DHT22;19493;48.042;7.584;2024-01-10T15:39:29;-1.90;99.90
26505;DHT22;19493;48.042;7.584;2024-01-10T15:41:54;-1.90;99.90